Time;durP1;ratioP1;P1;durP2;ratioP2;P2;SDS_P1;SDS_P2;PMS_P1;PMS_P2;Temp;Humidity;BMP_temperature;BMP_pressure;BME280_temperature;BME280_humidity;BME280_pressure;Samples;Min_cycle;Max_cycle;Signal;HPM_P1;HPM_P2
2021/06/05 00:00:58;;;;;;;2.42;1.50;;;;;;;29.86;36.62;97007.66;5038375;28;20722;-38
2021/06/05 00:03:24;;;;;;;3.17;1.90;;;;;;;29.86;36.63;97001.50;5027708;28;20028;-37
2021/06/05 00:05:59;;;;;;;2.75;1.80;;;;;;;29.86;36.55;97004.16;5038284;28;20043;-35
2021/06/05 00:08:31;;;;;;;2.63;1.77;;;;;;;29.88;36.40;97010.19;5030233;28;20086;-35
2021/06/05 00:11:01;;;;;;;1.50;1.40;;;;;;;29.87;36.47;97013.78;5041840;28;20863;-36
2021/06/05 00:13:32;;;;;;;3.10;1.70;;;;;;;29.87;36.45;97013.78;5036367;28;20115;-36
2021/06/05 00:15:57;;;;;;;2.97;2.00;;;;;;;29.86;36.36;97017.34;5036760;28;20027;-34
2021/06/05 00:18:23;;;;;;;2.88;1.63;;;;;;;29.86;36.61;97009.44;5034610;28;20275;-35
2021/06/05 00:20:48;;;;;;;3.42;1.75;;;;;;;29.86;36.58;97001.50;5041079;28;20032;-35
2021/06/05 00:23:17;;;;;;;1.98;1.50;;;;;;;29.86;36.48;97004.16;5031519;28;20108;-34
2021/06/05 00:25:42;;;;;;;2.08;1.60;;;;;;;29.85;36.57;97005.97;5033171;28;20762;-32
2021/06/05 00:28:08;;;;;;;1.95;1.60;;;;;;;29.86;36.31;97027.91;5031985;28;20041;-36
2021/06/05 00:30:33;;;;;;;1.83;1.50;;;;;;;29.86;36.29;97028.78;5035138;28;20132;-36
2021/06/05 00:32:59;;;;;;;2.92;1.60;;;;;;;29.86;36.38;97039.34;5039370;28;20089;-37
2021/06/05 00:35:25;;;;;;;1.83;1.38;;;;;;;29.86;36.54;97043.78;5036160;28;20032;-37
2021/06/05 00:37:50;;;;;;;2.17;1.48;;;;;;;29.86;36.41;97033.22;5048343;28;20056;-32
2021/06/05 00:40:17;;;;;;;1.65;1.30;;;;;;;29.86;36.48;97043.78;5038260;28;20683;-33
2021/06/05 00:42:42;;;;;;;2.78;1.50;;;;;;;29.87;36.48;97040.22;5032562;28;20629;-35
2021/06/05 00:45:10;;;;;;;1.92;1.52;;;;;;;29.87;36.18;97042.84;5038635;28;20064;-36
2021/06/05 00:47:35;;;;;;;1.73;1.45;;;;;;;29.87;36.46;97034.91;5039381;28;20028;-35
2021/06/05 00:50:00;;;;;;;2.22;1.40;;;;;;;29.86;36.19;97025.28;5038251;28;20024;-36
2021/06/05 00:52:26;;;;;;;3.33;1.60;;;;;;;29.87;36.28;97024.34;5031213;28;20051;-35
2021/06/05 00:54:51;;;;;;;2.45;1.50;;;;;;;29.86;36.50;97027.91;5034697;28;20278;-33
2021/06/05 00:57:17;;;;;;;2.55;1.50;;;;;;;29.88;36.35;97019.91;5031961;28;20559;-37
2021/06/05 00:59:42;;;;;;;1.83;1.27;;;;;;;29.87;36.23;97021.72;5038839;28;20036;-37
2021/06/05 01:02:08;;;;;;;2.78;1.50;;;;;;;29.87;36.37;97019.06;5031667;28;20049;-36
2021/06/05 01:04:33;;;;;;;1.75;1.50;;;;;;;29.88;36.16;97025.19;5040189;28;20040;-36
2021/06/05 01:07:09;;;;;;;4.28;1.40;;;;;;;29.88;36.21;97031.31;5036127;28;20126;-35
2021/06/05 01:09:55;;;;;;;1.73;1.30;;;;;;;29.87;36.35;97024.34;5028205;28;20095;-36
2021/06/05 01:12:30;;;;;;;1.40;1.23;;;;;;;29.87;36.33;97021.72;5006347;28;20469;-36
2021/06/05 01:15:11;;;;;;;1.98;1.30;;;;;;;29.85;36.10;97015.66;5035705;28;20083;-37
2021/06/05 01:17:38;;;;;;;2.72;1.70;;;;;;;29.86;36.12;97015.56;5044265;28;20021;-39
2021/06/05 01:20:13;;;;;;;1.95;1.52;;;;;;;29.86;36.26;97009.44;5027335;28;20040;-36
2021/06/05 01:23:12;;;;;;;2.00;1.63;;;;;;;29.85;36.31;97011.25;5029274;28;20029;-36
2021/06/05 01:25:53;;;;;;;1.75;1.30;;;;;;;29.87;36.25;97008.50;5041635;28;20059;-35
2021/06/05 01:28:35;;;;;;;1.52;1.17;;;;;;;29.86;36.24;97004.16;5036683;28;20093;-35
2021/06/05 01:31:04;;;;;;;1.70;1.10;;;;;;;29.85;36.17;97013.88;5045636;28;20041;-35
2021/06/05 01:33:30;;;;;;;1.30;1.20;;;;;;;29.82;36.19;97010.56;5036799;28;20025;-36
2021/06/05 01:35:55;;;;;;;2.38;1.20;;;;;;;29.85;36.14;97010.38;5046895;28;20060;-35
2021/06/05 01:38:22;;;;;;;1.67;1.38;;;;;;;29.85;36.09;97005.97;5031343;28;20036;-34
2021/06/05 01:40:48;;;;;;;1.20;1.10;;;;;;;29.86;36.08;97006.78;5017869;28;20017;-36
2021/06/05 01:43:14;;;;;;;2.72;1.00;;;;;;;29.86;36.12;97012.06;5033508;28;20329;-35
2021/06/05 01:45:40;;;;;;;1.95;1.30;;;;;;;29.86;36.07;97014.72;5037685;28;20029;-34
2021/06/05 01:48:07;;;;;;;1.83;1.27;;;;;;;29.85;36.27;97011.25;5036869;28;20077;-35
2021/06/05 01:50:33;;;;;;;1.58;0.93;;;;;;;29.86;36.14;97012.06;5035151;28;20085;-34
2021/06/05 01:53:02;;;;;;;1.23;1.08;;;;;;;29.87;36.25;97008.50;5036226;28;20024;-36
2021/06/05 01:55:30;;;;;;;1.90;1.20;;;;;;;29.86;36.03;97010.28;5032117;28;20064;-37
2021/06/05 01:57:56;;;;;;;1.98;1.20;;;;;;;29.85;36.25;97003.31;5018463;28;20041;-37
2021/06/05 02:00:25;;;;;;;1.95;1.23;;;;;;;29.86;36.24;97004.16;5031528;28;20934;-35
2021/06/05 02:02:51;;;;;;;2.15;1.10;;;;;;;29.86;36.18;97012.06;5029636;28;20021;-34
2021/06/05 02:05:17;;;;;;;0.95;0.85;;;;;;;29.86;36.09;97006.78;5030866;28;20029;-38
2021/06/05 02:07:43;;;;;;;1.83;1.25;;;;;;;29.87;36.14;97000.59;5039880;28;20059;-39
2021/06/05 02:10:12;;;;;;;1.48;1.00;;;;;;;29.86;36.17;96993.56;5038592;28;20311;-36
2021/06/05 02:12:37;;;;;;;1.83;1.10;;;;;;;29.87;36.01;96987.38;5047625;28;20044;-35
2021/06/05 02:15:06;;;;;;;1.23;1.10;;;;;;;29.88;36.22;96989.06;5020140;28;20099;-36
2021/06/05 02:17:32;;;;;;;1.40;1.17;;;;;;;29.88;36.30;96983.78;5031360;28;20032;-39
2021/06/05 02:20:19;;;;;;;1.92;1.15;;;;;;;29.88;35.95;96983.78;5035061;28;20605;-39
2021/06/05 02:22:44;;;;;;;2.08;1.10;;;;;;;29.88;36.13;96982.91;5027076;28;20053;-36
2021/06/05 02:25:11;;;;;;;2.80;1.30;;;;;;;29.88;36.17;96978.50;5045522;28;20021;-35
2021/06/05 02:27:36;;;;;;;1.40;1.05;;;;;;;29.88;36.02;96972.34;5037359;28;20666;-35
2021/06/05 02:30:03;;;;;;;1.75;0.95;;;;;;;29.86;36.19;96981.22;5024444;28;20039;-33
2021/06/05 02:32:30;;;;;;;1.42;0.88;;;;;;;29.88;35.88;96977.63;5027652;28;20622;-36
2021/06/05 02:34:55;;;;;;;1.55;1.08;;;;;;;29.87;36.15;96971.53;5036398;28;20035;-34
2021/06/05 02:37:24;;;;;;;1.67;1.17;;;;;;;29.88;35.95;96981.13;5026570;28;20032;-38
2021/06/05 02:39:53;;;;;;;1.55;1.00;;;;;;;29.87;36.09;96966.22;5037695;28;20040;-32
2021/06/05 02:42:19;;;;;;;1.77;1.02;;;;;;;29.87;35.84;96966.22;5043310;28;20025;-35
2021/06/05 02:44:47;;;;;;;1.73;0.95;;;;;;;29.88;36.03;96967.91;5011472;28;20102;-35
2021/06/05 02:47:12;;;;;;;1.80;1.27;;;;;;;29.88;35.83;96956.50;5036291;28;20021;-38
2021/06/05 02:49:38;;;;;;;1.77;1.02;;;;;;;29.88;36.21;96957.34;5030962;28;20044;-37
2021/06/05 02:52:28;;;;;;;1.20;1.10;;;;;;;29.88;35.92;96953.84;5031612;28;20117;-35
2021/06/05 02:54:58;;;;;;;1.35;1.00;;;;;;;29.89;35.81;96947.63;5031811;28;20041;-38
2021/06/05 02:57:24;;;;;;;1.33;0.90;;;;;;;29.88;36.11;96952.06;5037359;28;20477;-39
2021/06/05 02:59:49;;;;;;;1.50;1.00;;;;;;;29.88;35.88;96962.63;5032687;28;20028;-40
2021/06/05 03:02:14;;;;;;;1.00;0.70;;;;;;;29.88;35.82;96961.78;5043584;28;20044;-37
2021/06/05 03:04:40;;;;;;;1.50;1.20;;;;;;;29.87;36.09;96958.31;5028835;28;20025;-36
2021/06/05 03:07:05;;;;;;;1.05;0.90;;;;;;;29.88;36.01;96956.50;5036732;28;20024;-34
2021/06/05 03:09:31;;;;;;;1.15;1.00;;;;;;;29.86;35.99;96952.16;5034927;28;20036;-39
2021/06/05 03:11:56;;;;;;;1.77;0.95;;;;;;;29.86;36.02;96948.66;5049518;28;20048;-36
2021/06/05 03:14:21;;;;;;;0.95;0.77;;;;;;;29.88;35.98;96956.50;5034359;28;20039;-37
2021/06/05 03:16:47;;;;;;;0.80;0.75;;;;;;;29.87;35.84;96950.38;5032422;28;20024;-36
2021/06/05 03:19:12;;;;;;;1.05;0.80;;;;;;;29.89;35.79;96947.63;5033726;28;20272;-33
2021/06/05 03:21:38;;;;;;;1.02;1.00;;;;;;;29.87;36.11;96950.38;5031845;28;20033;-35
2021/06/05 03:24:03;;;;;;;1.60;1.00;;;;;;;29.88;36.15;96941.50;5034645;28;20497;-37
2021/06/05 03:26:29;;;;;;;2.28;1.17;;;;;;;29.87;35.76;96939.81;5035037;28;20238;-34
2021/06/05 03:28:54;;;;;;;1.40;1.05;;;;;;;29.88;36.00;96941.50;5040538;28;20025;-38
2021/06/05 03:31:21;;;;;;;1.55;0.80;;;;;;;29.87;36.12;96942.47;5031241;28;20041;-35
2021/06/05 03:33:50;;;;;;;1.50;0.95;;;;;;;29.88;35.74;96940.66;5037680;28;20272;-34
2021/06/05 03:36:15;;;;;;;0.70;0.65;;;;;;;29.88;35.92;96946.78;5038883;28;20052;-35
2021/06/05 03:38:41;;;;;;;1.52;0.93;;;;;;;29.87;35.83;96939.81;5029403;28;20031;-36
2021/06/05 03:41:07;;;;;;;0.70;0.70;;;;;;;29.87;35.72;96939.81;5034752;28;20028;-34
2021/06/05 03:43:32;;;;;;;1.65;0.90;;;;;;;29.88;35.87;96938.00;5036685;28;20056;-37
2021/06/05 03:45:57;;;;;;;1.65;1.10;;;;;;;29.88;35.95;96938.84;5035560;28;20494;-38
2021/06/05 03:48:23;;;;;;;0.80;0.80;;;;;;;29.86;35.81;96935.47;5032238;28;20040;-37
2021/06/05 03:50:51;;;;;;;0.63;0.63;;;;;;;29.87;35.97;96937.19;5037645;28;20032;-39
2021/06/05 03:53:16;;;;;;;1.15;0.80;;;;;;;29.88;35.84;96938.84;5036137;28;20037;-36
2021/06/05 03:55:42;;;;;;;1.55;0.90;;;;;;;29.87;36.03;96939.81;5035439;28;20020;-37
2021/06/05 03:58:09;;;;;;;1.25;0.75;;;;;;;29.87;35.73;96939.81;5035253;28;20032;-37
2021/06/05 04:00:37;;;;;;;2.20;0.85;;;;;;;29.86;35.77;96938.97;5035844;28;20036;-38
2021/06/05 04:03:03;;;;;;;1.00;0.88;;;;;;;29.88;35.75;96936.22;5028160;28;20557;-35
2021/06/05 04:05:28;;;;;;;0.63;0.60;;;;;;;29.87;35.86;96937.19;5038111;28;20024;-34
2021/06/05 04:07:54;;;;;;;1.13;0.82;;;;;;;29.87;35.98;96931.91;5038279;28;20526;-36
2021/06/05 04:10:20;;;;;;;0.85;0.80;;;;;;;29.86;35.84;96928.41;5049173;28;20052;-35
2021/06/05 04:12:46;;;;;;;0.80;0.65;;;;;;;29.88;35.84;96936.22;5039618;28;20109;-37
2021/06/05 04:15:12;;;;;;;0.75;0.60;;;;;;;29.88;35.77;96940.66;5035007;28;20593;-32
2021/06/05 04:17:38;;;;;;;1.05;0.70;;;;;;;29.86;36.04;96933.69;5037183;28;20091;-36
2021/06/05 04:20:05;;;;;;;0.90;0.70;;;;;;;29.88;35.73;96932.72;5025491;28;20436;-33
2021/06/05 04:22:31;;;;;;;0.75;0.70;;;;;;;29.87;36.08;96931.91;5033937;28;20752;-38
2021/06/05 04:24:56;;;;;;;1.20;0.77;;;;;;;29.86;36.17;96928.41;5040581;28;20024;-49
2021/06/05 04:27:21;;;;;;;0.93;0.60;;;;;;;29.86;35.87;96927.53;5040475;28;20017;-32
2021/06/05 04:29:47;;;;;;;0.85;0.70;;;;;;;29.88;35.87;96930.94;5042040;28;20846;-36
2021/06/05 04:32:12;;;;;;;0.60;0.60;;;;;;;29.88;36.05;96941.50;5032253;28;20047;-36
2021/06/05 04:34:38;;;;;;;0.70;0.60;;;;;;;29.88;35.71;96936.22;5037955;28;20060;-34
2021/06/05 04:37:04;;;;;;;1.13;0.60;;;;;;;29.87;35.74;96934.53;5029538;28;20126;-35
2021/06/05 04:39:29;;;;;;;0.77;0.68;;;;;;;29.86;35.67;96938.97;5015288;28;20314;-35
2021/06/05 04:41:54;;;;;;;0.80;0.80;;;;;;;29.86;35.71;96938.97;5040477;28;20021;-35
2021/06/05 04:44:20;;;;;;;0.82;0.70;;;;;;;29.87;35.74;96942.47;5040394;28;20036;-34
2021/06/05 04:46:45;;;;;;;0.68;0.60;;;;;;;29.86;35.73;96940.75;5032341;28;20036;-36
2021/06/05 04:49:12;;;;;;;1.52;0.65;;;;;;;29.87;35.67;96947.75;5034228;28;20040;-37
2021/06/05 04:51:37;;;;;;;0.80;0.80;;;;;;;29.87;35.70;96945.09;5039532;28;20032;-33
2021/06/05 04:54:03;;;;;;;2.25;0.60;;;;;;;29.87;35.94;96953.03;5022049;28;20028;-34
2021/06/05 04:56:42;;;;;;;0.60;0.60;;;;;;;29.86;35.96;96946.88;5036066;28;20099;-37
2021/06/05 04:59:08;;;;;;;0.68;0.63;;;;;;;29.85;35.88;96952.28;5038161;28;20036;-39
2021/06/05 05:01:33;;;;;;;0.60;0.60;;;;;;;29.86;35.99;96953.94;5037839;28;20090;-33
2021/06/05 05:03:59;;;;;;;0.80;0.80;;;;;;;29.86;35.86;96961.88;5050026;28;20090;-40
2021/06/05 05:06:24;;;;;;;1.48;0.63;;;;;;;29.86;35.97;96957.44;5033542;28;22099;-36
2021/06/05 05:08:49;;;;;;;0.60;0.60;;;;;;;29.87;35.56;96955.66;5034829;28;20033;-37
2021/06/05 05:11:15;;;;;;;1.05;0.50;;;;;;;29.87;36.02;96955.66;5036510;28;20690;-35
2021/06/05 05:13:40;;;;;;;0.93;0.60;;;;;;;29.87;35.76;96960.94;5031165;28;20036;-35
2021/06/05 05:16:06;;;;;;;0.50;0.50;;;;;;;29.88;35.79;96967.91;5036700;28;20029;-32
2021/06/05 05:18:32;;;;;;;0.55;0.55;;;;;;;29.88;35.77;96967.91;5013216;28;20211;-38
2021/06/05 05:20:58;;;;;;;0.60;0.60;;;;;;;29.89;35.81;96980.16;5045263;28;20033;-38
2021/06/05 05:23:27;;;;;;;0.88;0.70;;;;;;;29.89;35.61;96974.88;5032938;28;20040;-36
2021/06/05 05:25:52;;;;;;;0.98;0.90;;;;;;;29.88;35.82;96973.22;5038028;28;20052;-36
2021/06/05 05:28:18;;;;;;;0.95;0.50;;;;;;;29.88;35.62;96978.50;5050521;28;20037;-34
2021/06/05 05:30:47;;;;;;;1.05;0.60;;;;;;;29.88;35.61;96978.50;5038159;28;20048;-39
2021/06/05 05:33:13;;;;;;;0.88;0.50;;;;;;;29.88;35.90;96983.78;5032222;28;21192;-37
2021/06/05 05:35:38;;;;;;;0.60;0.55;;;;;;;29.88;35.88;96980.28;5039049;28;20036;-35
2021/06/05 05:38:04;;;;;;;0.50;0.50;;;;;;;29.88;35.60;96983.78;5034215;28;20033;-34
2021/06/05 05:40:30;;;;;;;0.57;0.57;;;;;;;29.87;35.96;96982.09;5038267;28;20706;-34
2021/06/05 05:42:55;;;;;;;0.50;0.50;;;;;;;29.87;35.71;96976.81;5038084;28;20043;-33
2021/06/05 05:45:21;;;;;;;1.77;0.70;;;;;;;29.87;35.63;96982.09;5038474;28;20107;-36
2021/06/05 05:47:47;;;;;;;0.68;0.60;;;;;;;29.88;35.56;96983.78;5026324;28;20017;-37
2021/06/05 05:50:14;;;;;;;0.50;0.50;;;;;;;29.88;35.91;96983.78;5032612;28;20031;-36
2021/06/05 05:52:39;;;;;;;0.60;0.60;;;;;;;29.90;35.67;96989.78;5029875;28;20028;-31
2021/06/05 05:55:06;;;;;;;0.65;0.50;;;;;;;29.87;35.80;96987.38;5036981;28;20034;-35
2021/06/05 05:57:32;;;;;;;0.40;0.40;;;;;;;29.88;36.03;96983.78;5043725;28;20441;-33
2021/06/05 05:59:57;;;;;;;0.63;0.52;;;;;;;29.88;35.87;96983.78;5039340;28;20041;-36
2021/06/05 06:02:22;;;;;;;0.82;0.57;;;;;;;29.87;35.77;96987.38;5035311;28;20040;-37
2021/06/05 06:04:48;;;;;;;0.32;0.32;;;;;;;29.88;35.62;96983.78;5036187;28;20051;-40
2021/06/05 06:07:13;;;;;;;0.68;0.52;;;;;;;29.88;35.91;96993.47;5036590;28;20017;-37
2021/06/05 06:09:39;;;;;;;0.43;0.30;;;;;;;29.87;35.60;96995.28;5040301;28;20040;-31
2021/06/05 06:12:05;;;;;;;0.40;0.40;;;;;;;29.82;35.89;96992.94;5037927;28;20028;-35
2021/06/05 06:14:30;;;;;;;0.73;0.40;;;;;;;29.86;35.81;97005.00;5036012;28;20035;-33
2021/06/05 06:16:56;;;;;;;0.60;0.40;;;;;;;29.87;35.80;96997.94;5032572;28;20028;-37
2021/06/05 06:19:21;;;;;;;0.55;0.50;;;;;;;29.87;35.85;96997.94;5027661;28;20418;-33
2021/06/05 06:21:47;;;;;;;0.45;0.45;;;;;;;29.88;35.76;96998.75;5033371;28;20478;-37
2021/06/05 06:24:12;;;;;;;0.85;0.43;;;;;;;29.86;35.90;96996.22;5034629;28;20037;-35
2021/06/05 06:26:38;;;;;;;0.60;0.60;;;;;;;29.86;35.82;97001.50;5020140;28;20033;-38
2021/06/05 06:29:29;;;;;;;0.85;0.60;;;;;;;29.87;35.56;97008.50;5034415;28;20024;-35
2021/06/05 06:31:52;;;;;;;0.98;0.60;;;;;;;29.86;35.67;96998.88;5033082;28;20032;-32
2021/06/05 06:34:18;;;;;;;2.67;0.60;;;;;;;29.87;35.66;97008.50;5029202;28;20071;-34
2021/06/05 06:36:43;;;;;;;2.30;0.57;;;;;;;29.86;35.74;97002.38;5026655;28;20264;-34
2021/06/05 06:39:09;;;;;;;5.78;0.60;;;;;;;29.87;35.75;97003.22;5025664;28;20036;-38
2021/06/05 06:41:35;;;;;;;7.82;1.08;;;;;;;29.88;35.74;97004.91;5032533;28;20033;-36
2021/06/05 06:44:01;;;;;;;10.27;1.10;;;;;;;29.88;35.91;96999.63;5029649;28;20040;-37
2021/06/05 06:46:29;;;;;;;6.72;0.95;;;;;;;29.88;36.05;97004.91;5040421;28;20110;-37
2021/06/05 06:48:56;;;;;;;3.92;1.15;;;;;;;29.89;36.03;97006.59;5029803;28;20033;-36
2021/06/05 06:51:21;;;;;;;5.18;1.58;;;;;;;29.89;36.44;97006.59;5048666;28;20838;-35
2021/06/05 06:53:47;;;;;;;3.45;1.25;;;;;;;29.89;36.13;97006.59;5033577;28;20035;-33
2021/06/05 06:56:12;;;;;;;4.07;1.15;;;;;;;29.89;35.95;97011.88;5031037;28;20033;-35
2021/06/05 06:58:38;;;;;;;5.53;1.30;;;;;;;29.88;35.90;97007.53;5032145;28;20033;-35
2021/06/05 07:01:04;;;;;;;9.70;1.40;;;;;;;29.88;36.14;97014.63;5033540;28;20068;-36
2021/06/05 07:03:30;;;;;;;2.13;1.00;;;;;;;29.87;36.00;97016.44;5017278;28;20766;-32
2021/06/05 07:05:55;;;;;;;2.50;1.08;;;;;;;29.86;35.85;97012.94;5028046;28;20036;-33
2021/06/05 07:08:23;;;;;;;1.65;1.00;;;;;;;29.86;35.97;97017.34;5024493;28;20029;-39
2021/06/05 07:10:53;;;;;;;2.05;1.00;;;;;;;29.85;36.02;97011.25;5026280;28;20025;-33
2021/06/05 07:13:19;;;;;;;3.97;1.35;;;;;;;29.84;35.83;97016.63;5026495;28;20044;-35
2021/06/05 07:15:44;;;;;;;5.13;1.20;;;;;;;29.83;35.87;97017.59;5021289;28;20029;-36
2021/06/05 07:18:11;;;;;;;6.32;1.20;;;;;;;29.83;35.78;97020.22;5037664;28;20097;-34
2021/06/05 07:20:36;;;;;;;2.25;1.00;;;;;;;29.81;35.75;97019.47;5024894;28;20036;-37
2021/06/05 07:23:02;;;;;;;6.50;1.33;;;;;;;29.81;35.67;97030.03;5036710;28;20877;-35
2021/06/05 07:25:28;;;;;;;1.45;0.95;;;;;;;29.80;35.82;97034.47;5023523;28;20108;-35
2021/06/05 07:27:54;;;;;;;4.50;1.08;;;;;;;29.80;35.56;97025.69;5028295;28;20033;-35
2021/06/05 07:30:20;;;;;;;2.20;0.93;;;;;;;29.79;35.83;97037.22;5025047;28;20029;-34
2021/06/05 07:32:45;;;;;;;5.55;1.35;;;;;;;29.79;35.84;97032.75;5025189;28;20040;-34
2021/06/05 07:35:10;;;;;;;4.78;1.17;;;;;;;29.79;35.72;97034.56;5025565;28;20021;-35
2021/06/05 07:37:36;;;;;;;2.67;0.90;;;;;;;29.79;35.84;97037.22;5024982;28;20682;-36
2021/06/05 07:40:06;;;;;;;2.70;1.02;;;;;;;29.78;35.78;97046.09;5042154;28;20411;-35
2021/06/05 07:42:32;;;;;;;2.55;1.30;;;;;;;29.77;35.58;97047.03;5027981;28;20495;-33
2021/06/05 07:44:58;;;;;;;3.50;1.15;;;;;;;29.76;35.62;97047.97;5029834;28;22102;-36
2021/06/05 07:47:23;;;;;;;3.05;1.27;;;;;;;29.72;35.78;97042.88;5026196;28;20025;-30
2021/06/05 07:49:49;;;;;;;1.85;0.80;;;;;;;29.71;35.64;97056.22;5030765;28;20032;-38
2021/06/05 07:52:14;;;;;;;5.68;1.40;;;;;;;29.68;35.44;97056.41;5028267;28;20559;-34
2021/06/05 07:54:39;;;;;;;3.45;1.35;;;;;;;29.65;35.51;97059.25;5029074;28;20033;-39
2021/06/05 07:57:05;;;;;;;2.90;1.20;;;;;;;29.57;35.67;97050.03;5027893;28;20463;-39
2021/06/05 07:59:30;;;;;;;4.57;1.55;;;;;;;29.59;35.50;97057.84;5029926;28;20727;-32
2021/06/05 08:01:56;;;;;;;2.47;1.13;;;;;;;29.56;35.83;97052.78;5027027;28;20060;-36
2021/06/05 08:04:22;;;;;;;2.40;1.30;;;;;;;29.54;35.66;97054.66;5030345;28;20721;-35
2021/06/05 08:06:49;;;;;;;3.38;1.40;;;;;;;29.51;35.61;97055.72;5030178;28;21836;-37
2021/06/05 08:09:15;;;;;;;4.90;1.10;;;;;;;29.48;35.89;97050.59;5039999;28;20028;-32
2021/06/05 08:11:40;;;;;;;2.13;1.10;;;;;;;29.45;35.71;97054.28;5027966;28;21094;-32
2021/06/05 08:14:06;;;;;;;3.70;0.90;;;;;;;29.44;35.72;97054.38;5031711;28;20037;-34
2021/06/05 08:16:36;;;;;;;2.92;1.40;;;;;;;29.42;35.99;97056.28;5033076;28;20021;-30
2021/06/05 08:19:05;;;;;;;2.50;1.08;;;;;;;29.40;36.00;97053.72;5031932;28;20552;-32
2021/06/05 08:21:31;;;;;;;2.70;0.95;;;;;;;29.36;35.67;97054.88;5029077;28;20674;-31
2021/06/05 08:23:56;;;;;;;3.03;1.30;;;;;;;29.39;35.67;97062.59;5040668;28;20082;-36
2021/06/05 08:26:22;;;;;;;2.55;1.20;;;;;;;29.37;35.51;97064.47;5029242;28;20033;-36
2021/06/05 08:28:47;;;;;;;3.38;1.40;;;;;;;29.36;35.47;97062.78;5027489;28;20108;-35
2021/06/05 08:31:16;;;;;;;6.95;1.38;;;;;;;29.36;35.59;97060.13;5027298;28;20045;-33
2021/06/05 08:33:42;;;;;;;2.63;1.40;;;;;;;29.34;35.68;97060.22;5028172;28;20728;-36
2021/06/05 08:36:08;;;;;;;4.32;1.25;;;;;;;29.34;35.46;97056.75;5040707;28;20132;-36
2021/06/05 08:38:34;;;;;;;3.00;1.10;;;;;;;29.32;35.67;97056.84;5041518;28;20148;-37
2021/06/05 08:41:17;;;;;;;5.32;1.20;;;;;;;29.33;35.58;97063.81;5027306;28;20025;-34
2021/06/05 08:44:11;;;;;;;11.10;3.95;;;;;;;29.30;35.66;97058.72;5029455;28;20131;-38
2021/06/05 08:46:40;;;;;;;7.05;1.95;;;;;;;29.28;35.53;97057.13;5024037;28;20106;-36
2021/06/05 08:49:11;;;;;;;5.97;1.63;;;;;;;29.24;35.27;97053.84;5029314;28;20757;-35
2021/06/05 08:51:45;;;;;;;8.57;1.70;;;;;;;29.17;35.46;97063.94;5039008;28;20074;-34
2021/06/05 08:54:26;;;;;;;4.43;1.27;;;;;;;29.06;35.73;97050.59;5025648;28;20429;-35
2021/06/05 08:56:51;;;;;;;4.82;1.20;;;;;;;29.05;35.72;97067.34;5025423;28;20222;-35
2021/06/05 08:59:19;;;;;;;3.50;1.52;;;;;;;28.98;36.03;97063.44;5025391;28;20036;-39
2021/06/05 09:01:45;;;;;;;4.68;1.77;;;;;;;28.92;36.32;97060.19;5023115;28;20466;-35
2021/06/05 09:04:16;;;;;;;5.75;1.55;;;;;;;28.88;36.25;97063.09;5021646;28;20079;-38
2021/06/05 09:06:58;;;;;;;3.45;1.42;;;;;;;28.79;36.46;97048.69;5025927;28;20025;-33
2021/06/05 09:09:26;;;;;;;7.13;1.75;;;;;;;28.79;36.47;97059.22;5029492;28;20025;-36
2021/06/05 09:11:52;;;;;;;4.13;1.60;;;;;;;28.75;36.74;97057.75;5027317;28;20482;-33
2021/06/05 09:14:17;;;;;;;2.17;1.20;;;;;;;28.74;36.79;97058.66;5027056;28;20036;-34
2021/06/05 09:16:47;;;;;;;2.88;1.17;;;;;;;28.70;36.68;97058.03;5023653;28;20032;-35
2021/06/05 09:19:27;;;;;;;5.07;1.27;;;;;;;28.69;36.62;97065.06;5026274;28;20036;-38
2021/06/05 09:22:07;;;;;;;8.20;1.60;;;;;;;28.69;36.86;97065.06;5021548;28;20136;-37
2021/06/05 09:24:43;;;;;;;11.77;1.85;;;;;;;28.69;36.65;97067.72;5037020;28;20058;-32
2021/06/05 09:27:19;;;;;;;3.30;1.33;;;;;;;28.72;36.95;97066.66;5018601;28;20036;-36
2021/06/05 09:29:51;;;;;;;5.10;1.73;;;;;;;28.74;36.89;97069.22;4997399;28;20075;-36
2021/06/05 09:32:33;;;;;;;4.03;1.08;;;;;;;28.74;37.03;97071.84;5026415;28;20088;-37
2021/06/05 09:35:04;;;;;;;5.82;1.45;;;;;;;28.77;37.18;97066.41;5022976;28;21080;-39
2021/06/05 09:37:48;;;;;;;4.78;1.52;;;;;;;28.77;37.07;97069.91;5024326;28;20059;-36
2021/06/05 09:40:20;;;;;;;2.95;1.50;;;;;;;28.77;37.21;97066.41;5036307;28;20415;-36
2021/06/05 09:43:08;;;;;;;4.40;1.58;;;;;;;28.78;37.13;97068.94;5025037;28;20036;-40
2021/06/05 09:45:36;;;;;;;4.38;1.55;;;;;;;28.80;36.95;97072.31;5035629;28;20066;-34
2021/06/05 09:48:20;;;;;;;12.80;2.53;;;;;;;28.85;36.99;97074.69;5039508;28;20031;-30
2021/06/05 09:50:47;;;;;;;14.10;3.20;;;;;;;28.86;36.90;97070.25;5041135;28;20021;-34
2021/06/05 09:53:16;;;;;;;17.15;4.05;;;;;;;28.91;37.04;97074.34;5035993;28;20102;-35
2021/06/05 09:55:42;;;;;;;18.23;3.90;;;;;;;28.96;36.67;97071.44;5044796;28;20097;-35
2021/06/05 09:58:10;;;;;;;11.18;4.03;;;;;;;28.99;36.71;97075.66;5036931;28;20510;-36
2021/06/05 10:00:38;;;;;;;17.00;4.10;;;;;;;29.03;36.73;97071.91;5048945;28;20033;-38
2021/06/05 10:03:30;;;;;;;14.43;3.70;;;;;;;29.07;36.74;97073.41;5036346;28;20032;-37
2021/06/05 10:05:55;;;;;;;;;;;;;;;29.12;36.58;97073.09;5038226;28;20035;-34
2021/06/05 10:08:41;;;;;;;15.95;3.70;;;;;;;29.14;36.38;97074.69;5041012;28;19917;-33
2021/06/05 10:11:27;;;;;;;16.58;2.83;;;;;;;29.17;36.38;97079.78;5014700;28;20036;-39
2021/06/05 10:14:14;;;;;;;8.60;3.30;;;;;;;29.20;36.55;97078.75;5037164;28;20526;-35
2021/06/05 10:16:42;;;;;;;9.23;2.75;;;;;;;29.21;36.46;97070.72;5043978;28;20027;-31
2021/06/05 10:19:12;;;;;;;5.85;2.08;;;;;;;29.23;36.42;97073.28;5030512;28;20044;-37
2021/06/05 10:21:38;;;;;;;8.93;2.80;;;;;;;29.25;36.43;97070.56;5013593;28;20087;-37
2021/06/05 10:24:25;;;;;;;8.48;2.63;;;;;;;29.26;36.22;97067.81;5041187;28;20080;-38
2021/06/05 10:26:50;;;;;;;7.80;2.60;;;;;;;29.29;36.30;97062.31;5039732;28;20016;-38
2021/06/05 10:29:34;;;;;;;7.88;2.42;;;;;;;29.31;36.19;97064.88;5028313;28;20070;-33
2021/06/05 10:32:01;;;;;;;8.73;2.70;;;;;;;29.33;36.14;97060.34;5038103;28;20044;-37
2021/06/05 10:34:31;;;;;;;5.60;2.15;;;;;;;29.36;36.05;97062.78;5049007;28;20032;-37
2021/06/05 10:36:56;;;;;;;7.40;2.60;;;;;;;29.36;36.01;97060.13;5037124;28;20247;-35
2021/06/05 10:39:31;;;;;;;7.18;2.45;;;;;;;29.39;36.14;97062.59;5035423;28;20025;-34
2021/06/05 10:41:59;;;;;;;6.53;2.20;;;;;;;29.40;36.26;97063.44;5029224;28;20607;-35
2021/06/05 10:44:25;;;;;;;6.68;2.40;;;;;;;29.42;36.14;97061.53;5028228;28;20071;-40
2021/06/05 10:46:51;;;;;;;5.93;2.13;;;;;;;29.42;36.15;97059.78;5033249;28;20855;-35
2021/06/05 10:49:29;;;;;;;6.07;2.20;;;;;;;29.46;36.19;97055.13;5047168;28;20410;-35
2021/06/05 10:52:17;;;;;;;6.55;2.25;;;;;;;29.45;36.21;97054.28;5043938;28;20040;-36
2021/06/05 10:54:46;;;;;;;7.07;2.35;;;;;;;29.47;36.24;97055.03;5032874;28;20025;-34
2021/06/05 10:57:23;;;;;;;7.07;2.28;;;;;;;29.50;36.20;97053.13;5029695;28;20066;-32
2021/06/05 10:59:59;;;;;;;4.22;1.95;;;;;;;29.51;35.82;97046.91;5038393;28;20037;-37
2021/06/05 11:02:31;;;;;;;7.40;2.20;;;;;;;29.52;35.94;97051.28;5016057;28;20036;-38
2021/06/05 11:04:57;;;;;;;5.78;1.77;;;;;;;29.52;35.99;97046.00;5038299;28;20629;-35
2021/06/05 11:07:25;;;;;;;11.05;2.15;;;;;;;29.56;35.88;97050.13;5030081;28;20107;-40
2021/06/05 11:09:52;;;;;;;3.85;1.85;;;;;;;29.56;36.10;97042.22;5036617;28;20032;-33
2021/06/05 11:12:18;;;;;;;8.95;2.40;;;;;;;29.57;36.04;97042.13;5047115;28;21792;-33
2021/06/05 11:14:47;;;;;;;7.65;2.05;;;;;;;29.58;35.97;97043.81;5043222;28;20032;-37
2021/06/05 11:17:30;;;;;;;5.95;1.98;;;;;;;29.59;36.01;97042.00;5040454;28;20859;-39
2021/06/05 11:20:05;;;;;;;5.32;1.90;;;;;;;29.60;35.81;97043.72;5044868;28;20037;-39
2021/06/05 11:22:54;;;;;;;5.10;2.10;;;;;;;29.61;36.20;97045.41;5041817;28;20056;-35
2021/06/05 11:25:19;;;;;;;7.03;2.38;;;;;;;29.61;36.12;97040.13;5036553;28;20994;-34
2021/06/05 11:27:50;;;;;;;5.90;2.05;;;;;;;29.63;36.22;97040.03;5040360;28;20031;-36
2021/06/05 11:30:21;;;;;;;7.43;1.98;;;;;;;29.63;36.08;97037.38;5051164;28;20037;-39
2021/06/05 11:32:55;;;;;;;5.38;2.20;;;;;;;29.63;36.22;97043.50;5043984;28;20035;-36
2021/06/05 11:35:37;;;;;;;4.97;2.00;;;;;;;29.63;36.12;97038.22;5041196;28;20044;-36
2021/06/05 11:38:04;;;;;;;5.43;2.08;;;;;;;29.64;36.22;97032.00;5034556;28;20021;-34
2021/06/05 11:40:50;;;;;;;5.40;2.08;;;;;;;29.65;36.08;97036.34;5053234;28;20284;-35